sensor_id;sensor_type;location;lat;lon;timestamp;temperature;humidity
13585;DHT22;6863;48.402;9.994;2023-12-20T00:00:58;4.60;97.90
13585;DHT22;6863;48.402;9.994;2023-12-20T00:03:24;4.60;98.00
13585;DHT22;6863;48.402;9.994;2023-12-20T00:05:49;4.80;97.80
13585;DHT22;6863;48.402;9.994;2023-12-20T00:08:16;4.80;97.70
13585;DHT22;6863;48.402;9.994;2023-12-20T00:10:41;4.80;97.70
13585;DHT22;6863;48.402;9.994;2023-12-20T00:13:07;4.80;97.70
13585;DHT22;6863;48.402;9.994;2023-12-20T00:15:33;4.80;97.70
13585;DHT22;6863;48.402;9.994;2023-12-20T00:17:59;4.90;97.70
13585;DHT22;6863;48.402;9.994;2023-12-20T00:20:26;4.90;97.60
13585;DHT22;6863;48.402;9.994;2023-12-20T00:22:52;4.80;97.60
13585;DHT22;6863;48.402;9.994;2023-12-20T00:25:17;4.90;97.80
13585;DHT22;6863;48.402;9.994;2023-12-20T00:27:43;4.80;97.70
13585;DHT22;6863;48.402;9.994;2023-12-20T00:30:10;4.80;97.70
13585;DHT22;6863;48.402;9.994;2023-12-20T00:32:35;4.80;97.60
13585;DHT22;6863;48.402;9.994;2023-12-20T00:35:01;4.90;97.60
13585;DHT22;6863;48.402;9.994;2023-12-20T00:37:27;4.90;97.70
13585;DHT22;6863;48.402;9.994;2023-12-20T00:39:52;4.90;97.80
13585;DHT22;6863;48.402;9.994;2023-12-20T00:42:18;4.90;97.80
13585;DHT22;6863;48.402;9.994;2023-12-20T00:44:44;4.90;97.80
13585;DHT22;6863;48.402;9.994;2023-12-20T00:47:10;5.00;97.80
13585;DHT22;6863;48.402;9.994;2023-12-20T00:49:35;5.00;97.80
13585;DHT22;6863;48.402;9.994;2023-12-20T00:52:01;4.90;97.90
13585;DHT22;6863;48.402;9.994;2023-12-20T00:54:26;4.90;98.00
13585;DHT22;6863;48.402;9.994;2023-12-20T00:56:52;5.00;97.90
13585;DHT22;6863;48.402;9.994;2023-12-20T00:59:17;4.90;98.00
13585;DHT22;6863;48.402;9.994;2023-12-20T01:01:44;4.90;98.20
13585;DHT22;6863;48.402;9.994;2023-12-20T01:04:09;4.90;98.20
13585;DHT22;6863;48.402;9.994;2023-12-20T01:06:35;4.90;98.30
13585;DHT22;6863;48.402;9.994;2023-12-20T01:09:01;4.80;98.50
13585;DHT22;6863;48.402;9.994;2023-12-20T01:11:27;4.80;98.60
13585;DHT22;6863;48.402;9.994;2023-12-20T01:13:53;4.90;98.60
13585;DHT22;6863;48.402;9.994;2023-12-20T01:16:18;5.00;98.60
13585;DHT22;6863;48.402;9.994;2023-12-20T01:18:44;4.90;98.70
13585;DHT22;6863;48.402;9.994;2023-12-20T01:21:09;4.90;98.70
13585;DHT22;6863;48.402;9.994;2023-12-20T01:23:35;4.90;98.90
13585;DHT22;6863;48.402;9.994;2023-12-20T01:26:01;4.80;99.10
13585;DHT22;6863;48.402;9.994;2023-12-20T01:28:27;4.90;99.10
13585;DHT22;6863;48.402;9.994;2023-12-20T01:30:53;4.90;99.30
13585;DHT22;6863;48.402;9.994;2023-12-20T01:33:19;4.90;99.40
13585;DHT22;6863;48.402;9.994;2023-12-20T01:35:44;4.80;99.50
13585;DHT22;6863;48.402;9.994;2023-12-20T01:38:10;4.90;99.70
13585;DHT22;6863;48.402;9.994;2023-12-20T01:40:35;4.90;99.70
13585;DHT22;6863;48.402;9.994;2023-12-20T01:43:10;4.90;99.80
13585;DHT22;6863;48.402;9.994;2023-12-20T01:45:37;4.90;99.90
13585;DHT22;6863;48.402;9.994;2023-12-20T01:48:05;4.90;99.90
13585;DHT22;6863;48.402;9.994;2023-12-20T01:50:31;4.90;99.90
13585;DHT22;6863;48.402;9.994;2023-12-20T01:52:59;5.10;99.90
13585;DHT22;6863;48.402;9.994;2023-12-20T01:55:27;5.00;99.90
13585;DHT22;6863;48.402;9.994;2023-12-20T01:57:55;4.90;99.90
13585;DHT22;6863;48.402;9.994;2023-12-20T02:00:21;4.90;99.90
13585;DHT22;6863;48.402;9.994;2023-12-20T02:02:50;4.80;99.90
13585;DHT22;6863;48.402;9.994;2023-12-20T02:05:16;4.80;99.90
13585;DHT22;6863;48.402;9.994;2023-12-20T02:07:42;4.80;99.90
13585;DHT22;6863;48.402;9.994;2023-12-20T02:10:08;4.80;99.90
13585;DHT22;6863;48.402;9.994;2023-12-20T02:12:33;4.80;99.90
13585;DHT22;6863;48.402;9.994;2023-12-20T02:14:59;4.80;99.90
13585;DHT22;6863;48.402;9.994;2023-12-20T02:17:26;4.80;99.90
13585;DHT22;6863;48.402;9.994;2023-12-20T02:19:52;4.80;99.90
13585;DHT22;6863;48.402;9.994;2023-12-20T02:22:18;4.70;99.90
13585;DHT22;6863;48.402;9.994;2023-12-20T02:24:44;4.50;99.90
13585;DHT22;6863;48.402;9.994;2023-12-20T02:27:09;4.60;99.90
13585;DHT22;6863;48.402;9.994;2023-12-20T02:29:35;4.50;99.90
13585;DHT22;6863;48.402;9.994;2023-12-20T02:32:02;4.50;99.90
13585;DHT22;6863;48.402;9.994;2023-12-20T02:34:28;4.50;99.90
13585;DHT22;6863;48.402;9.994;2023-12-20T02:36:54;4.50;99.90
13585;DHT22;6863;48.402;9.994;2023-12-20T02:39:20;4.50;99.90
13585;DHT22;6863;48.402;9.994;2023-12-20T02:41:46;4.50;99.90
13585;DHT22;6863;48.402;9.994;2023-12-20T02:44:12;4.50;99.90
13585;DHT22;6863;48.402;9.994;2023-12-20T02:46:37;4.50;99.90
13585;DHT22;6863;48.402;9.994;2023-12-20T02:49:03;4.50;99.90
13585;DHT22;6863;48.402;9.994;2023-12-20T02:51:29;4.50;99.90
13585;DHT22;6863;48.402;9.994;2023-12-20T02:53:54;4.50;99.90
13585;DHT22;6863;48.402;9.994;2023-12-20T02:56:20;4.50;99.90
13585;DHT22;6863;48.402;9.994;2023-12-20T02:58:45;4.50;99.90
13585;DHT22;6863;48.402;9.994;2023-12-20T03:01:11;4.40;99.90
13585;DHT22;6863;48.402;9.994;2023-12-20T03:03:36;4.50;99.90
13585;DHT22;6863;48.402;9.994;2023-12-20T03:06:02;4.60;99.90
13585;DHT22;6863;48.402;9.994;2023-12-20T03:08:28;4.60;99.90
13585;DHT22;6863;48.402;9.994;2023-12-20T03:10:53;4.60;99.90
13585;DHT22;6863;48.402;9.994;2023-12-20T03:13:19;4.60;99.90
13585;DHT22;6863;48.402;9.994;2023-12-20T03:15:45;4.60;99.90
13585;DHT22;6863;48.402;9.994;2023-12-20T03:18:11;4.50;99.90
13585;DHT22;6863;48.402;9.994;2023-12-20T03:20:37;4.60;99.90
13585;DHT22;6863;48.402;9.994;2023-12-20T03:23:03;4.60;99.90
13585;DHT22;6863;48.402;9.994;2023-12-20T03:25:29;4.60;99.90
13585;DHT22;6863;48.402;9.994;2023-12-20T03:27:55;4.60;99.90
13585;DHT22;6863;48.402;9.994;2023-12-20T03:30:20;4.60;99.90
13585;DHT22;6863;48.402;9.994;2023-12-20T03:32:47;4.60;99.90
13585;DHT22;6863;48.402;9.994;2023-12-20T03:35:12;4.50;99.90
13585;DHT22;6863;48.402;9.994;2023-12-20T03:37:38;4.60;99.90
13585;DHT22;6863;48.402;9.994;2023-12-20T03:40:04;4.60;99.90
13585;DHT22;6863;48.402;9.994;2023-12-20T03:42:30;4.50;99.90
13585;DHT22;6863;48.402;9.994;2023-12-20T03:44:56;4.50;99.90
13585;DHT22;6863;48.402;9.994;2023-12-20T03:47:21;4.40;99.90
13585;DHT22;6863;48.402;9.994;2023-12-20T03:49:47;4.50;99.90
13585;DHT22;6863;48.402;9.994;2023-12-20T03:52:13;4.50;99.90
13585;DHT22;6863;48.402;9.994;2023-12-20T03:54:38;4.50;99.90
13585;DHT22;6863;48.402;9.994;2023-12-20T03:57:04;4.50;99.90
13585;DHT22;6863;48.402;9.994;2023-12-20T03:59:34;4.50;99.90
13585;DHT22;6863;48.402;9.994;2023-12-20T04:02:00;4.50;99.90
13585;DHT22;6863;48.402;9.994;2023-12-20T04:04:25;4.50;99.90
13585;DHT22;6863;48.402;9.994;2023-12-20T04:06:51;4.60;99.90
13585;DHT22;6863;48.402;9.994;2023-12-20T04:09:16;4.60;99.90
13585;DHT22;6863;48.402;9.994;2023-12-20T04:11:42;4.60;99.90
13585;DHT22;6863;48.402;9.994;2023-12-20T04:14:08;4.60;99.90
13585;DHT22;6863;48.402;9.994;2023-12-20T04:16:34;4.50;99.90
13585;DHT22;6863;48.402;9.994;2023-12-20T04:18:59;4.40;99.90
13585;DHT22;6863;48.402;9.994;2023-12-20T04:21:25;4.40;99.90
13585;DHT22;6863;48.402;9.994;2023-12-20T04:23:51;4.40;99.90
13585;DHT22;6863;48.402;9.994;2023-12-20T04:26:16;4.50;99.90
13585;DHT22;6863;48.402;9.994;2023-12-20T04:28:42;4.50;99.90
13585;DHT22;6863;48.402;9.994;2023-12-20T04:31:08;4.40;99.90
13585;DHT22;6863;48.402;9.994;2023-12-20T04:33:33;4.40;99.90
13585;DHT22;6863;48.402;9.994;2023-12-20T04:35:59;4.40;99.90
13585;DHT22;6863;48.402;9.994;2023-12-20T04:38:25;4.40;99.90
13585;DHT22;6863;48.402;9.994;2023-12-20T04:40:51;4.40;99.90
13585;DHT22;6863;48.402;9.994;2023-12-20T04:43:17;4.50;99.90
13585;DHT22;6863;48.402;9.994;2023-12-20T04:45:43;4.50;99.90
13585;DHT22;6863;48.402;9.994;2023-12-20T04:48:08;4.50;99.90
13585;DHT22;6863;48.402;9.994;2023-12-20T04:50:34;4.50;99.90
13585;DHT22;6863;48.402;9.994;2023-12-20T04:53:00;4.60;99.90
13585;DHT22;6863;48.402;9.994;2023-12-20T04:55:25;4.60;99.90
13585;DHT22;6863;48.402;9.994;2023-12-20T04:57:51;4.60;99.90
13585;DHT22;6863;48.402;9.994;2023-12-20T05:00:17;4.60;99.90
13585;DHT22;6863;48.402;9.994;2023-12-20T05:02:43;4.60;99.90
13585;DHT22;6863;48.402;9.994;2023-12-20T05:05:08;4.60;99.90
13585;DHT22;6863;48.402;9.994;2023-12-20T05:07:34;4.70;99.90
13585;DHT22;6863;48.402;9.994;2023-12-20T05:10:00;4.60;99.90
13585;DHT22;6863;48.402;9.994;2023-12-20T05:12:25;4.60;99.90
13585;DHT22;6863;48.402;9.994;2023-12-20T05:14:52;4.60;99.90
13585;DHT22;6863;48.402;9.994;2023-12-20T05:17:17;4.60;99.90
13585;DHT22;6863;48.402;9.994;2023-12-20T05:19:43;4.50;99.90
13585;DHT22;6863;48.402;9.994;2023-12-20T05:22:09;4.50;99.90
13585;DHT22;6863;48.402;9.994;2023-12-20T05:24:35;4.50;99.90
13585;DHT22;6863;48.402;9.994;2023-12-20T05:27:00;4.50;99.90
13585;DHT22;6863;48.402;9.994;2023-12-20T05:29:26;4.50;99.90
13585;DHT22;6863;48.402;9.994;2023-12-20T05:31:52;4.50;99.90
13585;DHT22;6863;48.402;9.994;2023-12-20T05:34:17;4.60;99.90
13585;DHT22;6863;48.402;9.994;2023-12-20T05:36:43;4.50;99.90
13585;DHT22;6863;48.402;9.994;2023-12-20T05:39:08;4.60;99.90
13585;DHT22;6863;48.402;9.994;2023-12-20T05:41:34;4.60;99.90
13585;DHT22;6863;48.402;9.994;2023-12-20T05:44:00;4.60;99.90
13585;DHT22;6863;48.402;9.994;2023-12-20T05:46:25;4.60;99.90
13585;DHT22;6863;48.402;9.994;2023-12-20T05:48:51;4.60;99.90
13585;DHT22;6863;48.402;9.994;2023-12-20T05:51:17;4.60;99.90
13585;DHT22;6863;48.402;9.994;2023-12-20T05:53:44;4.60;99.90
13585;DHT22;6863;48.402;9.994;2023-12-20T05:56:10;4.70;99.90
13585;DHT22;6863;48.402;9.994;2023-12-20T05:58:35;4.70;99.90
13585;DHT22;6863;48.402;9.994;2023-12-20T06:01:04;4.70;99.90
13585;DHT22;6863;48.402;9.994;2023-12-20T06:03:30;4.70;99.90
13585;DHT22;6863;48.402;9.994;2023-12-20T06:05:55;4.70;99.90
13585;DHT22;6863;48.402;9.994;2023-12-20T06:08:21;4.80;99.90
13585;DHT22;6863;48.402;9.994;2023-12-20T06:10:47;4.90;99.90
13585;DHT22;6863;48.402;9.994;2023-12-20T06:13:12;4.80;99.90
13585;DHT22;6863;48.402;9.994;2023-12-20T06:15:39;4.70;99.90
13585;DHT22;6863;48.402;9.994;2023-12-20T06:18:05;4.80;99.90
13585;DHT22;6863;48.402;9.994;2023-12-20T06:20:32;4.80;99.90
13585;DHT22;6863;48.402;9.994;2023-12-20T06:22:58;4.70;99.90
13585;DHT22;6863;48.402;9.994;2023-12-20T06:25:24;4.80;99.90
13585;DHT22;6863;48.402;9.994;2023-12-20T06:27:50;4.80;99.90
13585;DHT22;6863;48.402;9.994;2023-12-20T06:30:16;4.90;99.90
13585;DHT22;6863;48.402;9.994;2023-12-20T06:32:42;4.90;99.90
13585;DHT22;6863;48.402;9.994;2023-12-20T06:35:09;4.90;99.90
13585;DHT22;6863;48.402;9.994;2023-12-20T06:37:34;4.80;99.90
13585;DHT22;6863;48.402;9.994;2023-12-20T06:40:00;4.80;99.90
13585;DHT22;6863;48.402;9.994;2023-12-20T06:42:26;4.70;99.90
13585;DHT22;6863;48.402;9.994;2023-12-20T06:44:52;4.80;99.90
13585;DHT22;6863;48.402;9.994;2023-12-20T06:47:17;4.80;99.90
13585;DHT22;6863;48.402;9.994;2023-12-20T06:49:43;4.90;99.90
13585;DHT22;6863;48.402;9.994;2023-12-20T06:52:08;4.80;99.90
13585;DHT22;6863;48.402;9.994;2023-12-20T06:54:34;4.80;99.90
13585;DHT22;6863;48.402;9.994;2023-12-20T06:57:00;4.80;99.90
13585;DHT22;6863;48.402;9.994;2023-12-20T06:59:26;4.80;99.90
13585;DHT22;6863;48.402;9.994;2023-12-20T07:01:51;4.80;99.90
13585;DHT22;6863;48.402;9.994;2023-12-20T07:04:17;4.80;99.90
13585;DHT22;6863;48.402;9.994;2023-12-20T07:06:48;4.80;99.90
13585;DHT22;6863;48.402;9.994;2023-12-20T07:09:15;4.70;99.90
13585;DHT22;6863;48.402;9.994;2023-12-20T07:11:41;4.70;99.90
13585;DHT22;6863;48.402;9.994;2023-12-20T07:14:07;4.80;99.90
13585;DHT22;6863;48.402;9.994;2023-12-20T07:16:32;4.70;99.90
13585;DHT22;6863;48.402;9.994;2023-12-20T07:18:58;4.80;99.90
13585;DHT22;6863;48.402;9.994;2023-12-20T07:21:23;4.70;99.90
13585;DHT22;6863;48.402;9.994;2023-12-20T07:23:49;4.70;99.90
13585;DHT22;6863;48.402;9.994;2023-12-20T07:26:15;4.80;99.90
13585;DHT22;6863;48.402;9.994;2023-12-20T07:28:41;4.70;99.90
13585;DHT22;6863;48.402;9.994;2023-12-20T07:31:06;4.80;99.90
13585;DHT22;6863;48.402;9.994;2023-12-20T07:33:32;4.90;99.90
13585;DHT22;6863;48.402;9.994;2023-12-20T07:35:59;4.80;99.90
13585;DHT22;6863;48.402;9.994;2023-12-20T07:38:25;4.90;99.90
13585;DHT22;6863;48.402;9.994;2023-12-20T07:40:50;4.90;99.90
13585;DHT22;6863;48.402;9.994;2023-12-20T07:43:16;5.00;99.90
13585;DHT22;6863;48.402;9.994;2023-12-20T07:45:41;4.90;99.90
13585;DHT22;6863;48.402;9.994;2023-12-20T07:48:07;4.90;99.90
13585;DHT22;6863;48.402;9.994;2023-12-20T07:50:33;4.90;99.90
13585;DHT22;6863;48.402;9.994;2023-12-20T07:52:59;4.90;99.90
13585;DHT22;6863;48.402;9.994;2023-12-20T07:55:26;4.90;99.90
13585;DHT22;6863;48.402;9.994;2023-12-20T07:57:52;4.80;99.90
13585;DHT22;6863;48.402;9.994;2023-12-20T08:00:18;4.90;99.90
13585;DHT22;6863;48.402;9.994;2023-12-20T08:02:43;4.80;99.90
13585;DHT22;6863;48.402;9.994;2023-12-20T08:05:09;4.80;99.90
13585;DHT22;6863;48.402;9.994;2023-12-20T08:07:35;4.80;99.90
13585;DHT22;6863;48.402;9.994;2023-12-20T08:10:00;4.70;99.90
13585;DHT22;6863;48.402;9.994;2023-12-20T08:12:26;4.80;99.90
13585;DHT22;6863;48.402;9.994;2023-12-20T08:14:53;4.90;99.90
13585;DHT22;6863;48.402;9.994;2023-12-20T08:17:19;4.90;99.90
13585;DHT22;6863;48.402;9.994;2023-12-20T08:19:45;5.00;99.90
13585;DHT22;6863;48.402;9.994;2023-12-20T08:22:11;5.00;99.90
13585;DHT22;6863;48.402;9.994;2023-12-20T08:24:37;5.10;99.90
13585;DHT22;6863;48.402;9.994;2023-12-20T08:27:03;5.20;99.90
13585;DHT22;6863;48.402;9.994;2023-12-20T08:29:29;5.30;99.90
13585;DHT22;6863;48.402;9.994;2023-12-20T08:31:55;5.30;99.90
13585;DHT22;6863;48.402;9.994;2023-12-20T08:34:20;5.30;99.90
13585;DHT22;6863;48.402;9.994;2023-12-20T08:36:46;5.30;99.90
13585;DHT22;6863;48.402;9.994;2023-12-20T08:39:12;5.20;99.90
13585;DHT22;6863;48.402;9.994;2023-12-20T08:41:38;5.30;99.90
13585;DHT22;6863;48.402;9.994;2023-12-20T08:44:03;5.60;99.90
13585;DHT22;6863;48.402;9.994;2023-12-20T08:46:29;5.80;99.90
13585;DHT22;6863;48.402;9.994;2023-12-20T08:48:55;6.10;99.90
13585;DHT22;6863;48.402;9.994;2023-12-20T08:51:20;6.20;99.90
13585;DHT22;6863;48.402;9.994;2023-12-20T08:53:48;6.00;99.90
13585;DHT22;6863;48.402;9.994;2023-12-20T08:56:14;5.90;99.90
13585;DHT22;6863;48.402;9.994;2023-12-20T08:58:40;5.80;99.90
13585;DHT22;6863;48.402;9.994;2023-12-20T09:01:05;5.80;99.90
13585;DHT22;6863;48.402;9.994;2023-12-20T09:03:31;5.80;99.90
13585;DHT22;6863;48.402;9.994;2023-12-20T09:05:57;5.80;99.90
13585;DHT22;6863;48.402;9.994;2023-12-20T09:08:22;5.80;99.90
13585;DHT22;6863;48.402;9.994;2023-12-20T09:10:48;5.90;99.90
13585;DHT22;6863;48.402;9.994;2023-12-20T09:13:13;6.60;99.90
13585;DHT22;6863;48.402;9.994;2023-12-20T09:15:39;7.00;99.90
13585;DHT22;6863;48.402;9.994;2023-12-20T09:18:05;6.90;99.90
13585;DHT22;6863;48.402;9.994;2023-12-20T09:20:31;7.70;99.90
13585;DHT22;6863;48.402;9.994;2023-12-20T09:22:56;8.30;99.90
13585;DHT22;6863;48.402;9.994;2023-12-20T09:25:22;8.50;99.90
13585;DHT22;6863;48.402;9.994;2023-12-20T09:27:48;8.60;99.90
13585;DHT22;6863;48.402;9.994;2023-12-20T09:30:14;8.20;99.90
13585;DHT22;6863;48.402;9.994;2023-12-20T09:32:40;7.90;99.90
13585;DHT22;6863;48.402;9.994;2023-12-20T09:35:05;7.40;99.90
13585;DHT22;6863;48.402;9.994;2023-12-20T09:37:32;7.10;99.90
13585;DHT22;6863;48.402;9.994;2023-12-20T09:39:57;6.80;99.90
13585;DHT22;6863;48.402;9.994;2023-12-20T09:42:44;6.60;99.90
13585;DHT22;6863;48.402;9.994;2023-12-20T09:45:14;6.90;99.90
13585;DHT22;6863;48.402;9.994;2023-12-20T09:47:41;7.00;99.90
13585;DHT22;6863;48.402;9.994;2023-12-20T09:50:07;7.00;99.90
13585;DHT22;6863;48.402;9.994;2023-12-20T09:52:34;7.20;99.90
13585;DHT22;6863;48.402;9.994;2023-12-20T09:55:01;7.30;99.90
13585;DHT22;6863;48.402;9.994;2023-12-20T09:57:31;7.70;99.90
13585;DHT22;6863;48.402;9.994;2023-12-20T09:59:57;8.00;99.90
13585;DHT22;6863;48.402;9.994;2023-12-20T10:02:24;8.00;99.90
13585;DHT22;6863;48.402;9.994;2023-12-20T10:04:52;7.90;99.90
13585;DHT22;6863;48.402;9.994;2023-12-20T10:07:18;7.80;99.90
13585;DHT22;6863;48.402;9.994;2023-12-20T10:09:44;7.60;99.90
13585;DHT22;6863;48.402;9.994;2023-12-20T10:12:09;7.20;99.90
13585;DHT22;6863;48.402;9.994;2023-12-20T10:14:35;7.10;99.90
13585;DHT22;6863;48.402;9.994;2023-12-20T10:17:04;7.40;99.90
13585;DHT22;6863;48.402;9.994;2023-12-20T10:19:31;8.10;99.90
13585;DHT22;6863;48.402;9.994;2023-12-20T10:22:01;8.70;99.90
13585;DHT22;6863;48.402;9.994;2023-12-20T10:24:29;8.70;98.90
13585;DHT22;6863;48.402;9.994;2023-12-20T10:27:04;8.20;99.10
13585;DHT22;6863;48.402;9.994;2023-12-20T10:29:37;7.90;99.70
13585;DHT22;6863;48.402;9.994;2023-12-20T10:32:26;7.60;99.90
13585;DHT22;6863;48.402;9.994;2023-12-20T10:34:53;7.30;99.90
13585;DHT22;6863;48.402;9.994;2023-12-20T10:37:19;7.10;99.90
13585;DHT22;6863;48.402;9.994;2023-12-20T10:39:49;7.00;99.90
13585;DHT22;6863;48.402;9.994;2023-12-20T10:42:16;6.90;99.90
13585;DHT22;6863;48.402;9.994;2023-12-20T10:44:42;6.90;99.90
13585;DHT22;6863;48.402;9.994;2023-12-20T10:47:09;6.80;99.90
13585;DHT22;6863;48.402;9.994;2023-12-20T10:49:37;6.70;99.90
13585;DHT22;6863;48.402;9.994;2023-12-20T10:52:06;6.70;99.90
13585;DHT22;6863;48.402;9.994;2023-12-20T10:54:32;6.60;99.90
13585;DHT22;6863;48.402;9.994;2023-12-20T10:56:58;6.50;99.90
13585;DHT22;6863;48.402;9.994;2023-12-20T10:59:24;6.50;99.90
13585;DHT22;6863;48.402;9.994;2023-12-20T11:01:50;6.40;99.90
13585;DHT22;6863;48.402;9.994;2023-12-20T11:04:44;6.40;99.90
13585;DHT22;6863;48.402;9.994;2023-12-20T11:07:35;6.60;99.90
13585;DHT22;6863;48.402;9.994;2023-12-20T11:10:29;7.00;99.80
13585;DHT22;6863;48.402;9.994;2023-12-20T11:13:08;7.30;98.60
13585;DHT22;6863;48.402;9.994;2023-12-20T11:15:36;8.50;98.60
13585;DHT22;6863;48.402;9.994;2023-12-20T11:18:04;11.10;93.00
13585;DHT22;6863;48.402;9.994;2023-12-20T11:20:40;13.80;85.60
13585;DHT22;6863;48.402;9.994;2023-12-20T11:23:07;15.90;74.80
13585;DHT22;6863;48.402;9.994;2023-12-20T11:25:52;17.70;65.90
13585;DHT22;6863;48.402;9.994;2023-12-20T11:28:23;18.20;59.00
13585;DHT22;6863;48.402;9.994;2023-12-20T11:31:00;19.70;54.80
13585;DHT22;6863;48.402;9.994;2023-12-20T11:33:35;21.10;51.00
13585;DHT22;6863;48.402;9.994;2023-12-20T11:36:01;21.70;47.90
13585;DHT22;6863;48.402;9.994;2023-12-20T11:38:37;22.50;45.50
13585;DHT22;6863;48.402;9.994;2023-12-20T11:41:08;23.10;41.50
13585;DHT22;6863;48.402;9.994;2023-12-20T11:43:37;23.70;41.40
13585;DHT22;6863;48.402;9.994;2023-12-20T11:46:06;22.50;39.80
13585;DHT22;6863;48.402;9.994;2023-12-20T11:48:37;21.40;41.90
13585;DHT22;6863;48.402;9.994;2023-12-20T11:51:08;20.70;41.70
13585;DHT22;6863;48.402;9.994;2023-12-20T11:53:34;21.40;42.80
13585;DHT22;6863;48.402;9.994;2023-12-20T11:56:00;19.40;42.30
13585;DHT22;6863;48.402;9.994;2023-12-20T11:58:28;17.60;45.40
13585;DHT22;6863;48.402;9.994;2023-12-20T12:00:55;17.40;47.80
13585;DHT22;6863;48.402;9.994;2023-12-20T12:03:21;17.50;47.80
13585;DHT22;6863;48.402;9.994;2023-12-20T12:10:44;19.10;45.40
13585;DHT22;6863;48.402;9.994;2023-12-20T12:13:10;20.00;43.60
13585;DHT22;6863;48.402;9.994;2023-12-20T12:15:37;19.70;44.10
13585;DHT22;6863;48.402;9.994;2023-12-20T12:18:03;20.40;42.40
13585;DHT22;6863;48.402;9.994;2023-12-20T12:20:29;18.90;42.40
13585;DHT22;6863;48.402;9.994;2023-12-20T12:23:05;16.60;46.20
13585;DHT22;6863;48.402;9.994;2023-12-20T12:25:34;14.90;49.50
13585;DHT22;6863;48.402;9.994;2023-12-20T12:28:01;14.10;51.30
13585;DHT22;6863;48.402;9.994;2023-12-20T12:30:27;13.10;53.10
13585;DHT22;6863;48.402;9.994;2023-12-20T12:32:53;12.70;54.20
13585;DHT22;6863;48.402;9.994;2023-12-20T12:35:19;13.90;55.10
13585;DHT22;6863;48.402;9.994;2023-12-20T12:37:45;16.50;51.70
13585;DHT22;6863;48.402;9.994;2023-12-20T12:40:16;16.80;47.80
13585;DHT22;6863;48.402;9.994;2023-12-20T12:42:43;16.80;46.80
13585;DHT22;6863;48.402;9.994;2023-12-20T12:45:09;17.20;45.70
13585;DHT22;6863;48.402;9.994;2023-12-20T12:47:37;16.50;46.20
13585;DHT22;6863;48.402;9.994;2023-12-20T12:50:08;16.20;47.60
13585;DHT22;6863;48.402;9.994;2023-12-20T12:52:37;15.40;48.60
13585;DHT22;6863;48.402;9.994;2023-12-20T12:55:09;13.80;50.10
13585;DHT22;6863;48.402;9.994;2023-12-20T12:57:34;12.70;54.10
13585;DHT22;6863;48.402;9.994;2023-12-20T13:00:03;12.90;54.50
13585;DHT22;6863;48.402;9.994;2023-12-20T13:02:29;12.70;54.90
13585;DHT22;6863;48.402;9.994;2023-12-20T13:04:54;11.80;55.40
13585;DHT22;6863;48.402;9.994;2023-12-20T13:07:20;11.50;56.70
13585;DHT22;6863;48.402;9.994;2023-12-20T13:09:45;11.40;57.10
13585;DHT22;6863;48.402;9.994;2023-12-20T13:12:11;11.10;56.50
13585;DHT22;6863;48.402;9.994;2023-12-20T13:14:36;10.50;58.10
13585;DHT22;6863;48.402;9.994;2023-12-20T13:17:03;10.30;59.60
13585;DHT22;6863;48.402;9.994;2023-12-20T13:19:29;10.40;59.50
13585;DHT22;6863;48.402;9.994;2023-12-20T13:21:56;10.10;59.70
13585;DHT22;6863;48.402;9.994;2023-12-20T13:24:21;9.90;61.70
13585;DHT22;6863;48.402;9.994;2023-12-20T13:26:47;9.40;62.80
13585;DHT22;6863;48.402;9.994;2023-12-20T13:29:12;8.70;64.60
13585;DHT22;6863;48.402;9.994;2023-12-20T13:31:38;8.20;66.60
13585;DHT22;6863;48.402;9.994;2023-12-20T13:34:06;7.70;69.30
13585;DHT22;6863;48.402;9.994;2023-12-20T13:36:32;7.50;71.50
13585;DHT22;6863;48.402;9.994;2023-12-20T13:38:57;7.20;73.60
13585;DHT22;6863;48.402;9.994;2023-12-20T13:41:23;7.00;76.20
13585;DHT22;6863;48.402;9.994;2023-12-20T13:43:48;6.70;78.50
13585;DHT22;6863;48.402;9.994;2023-12-20T13:46:14;6.50;80.70
13585;DHT22;6863;48.402;9.994;2023-12-20T13:48:40;6.30;82.60
13585;DHT22;6863;48.402;9.994;2023-12-20T13:51:05;6.10;84.20
13585;DHT22;6863;48.402;9.994;2023-12-20T13:53:31;6.10;85.40
13585;DHT22;6863;48.402;9.994;2023-12-20T13:55:57;6.20;86.50
13585;DHT22;6863;48.402;9.994;2023-12-20T13:58:23;6.50;86.30
13585;DHT22;6863;48.402;9.994;2023-12-20T14:00:48;6.80;84.40
13585;DHT22;6863;48.402;9.994;2023-12-20T14:03:15;6.80;84.10
13585;DHT22;6863;48.402;9.994;2023-12-20T14:05:40;6.60;84.60
13585;DHT22;6863;48.402;9.994;2023-12-20T14:08:06;6.50;85.50
13585;DHT22;6863;48.402;9.994;2023-12-20T14:10:32;6.40;86.20
13585;DHT22;6863;48.402;9.994;2023-12-20T14:12:58;6.30;86.80
13585;DHT22;6863;48.402;9.994;2023-12-20T14:15:24;6.30;88.00
13585;DHT22;6863;48.402;9.994;2023-12-20T14:17:50;6.20;89.00
13585;DHT22;6863;48.402;9.994;2023-12-20T14:20:16;6.20;89.10
13585;DHT22;6863;48.402;9.994;2023-12-20T14:22:43;6.20;87.90
13585;DHT22;6863;48.402;9.994;2023-12-20T14:25:12;6.30;87.40
13585;DHT22;6863;48.402;9.994;2023-12-20T14:27:39;6.30;86.80
13585;DHT22;6863;48.402;9.994;2023-12-20T14:30:06;6.10;85.90
13585;DHT22;6863;48.402;9.994;2023-12-20T14:32:34;6.00;86.90
13585;DHT22;6863;48.402;9.994;2023-12-20T14:34:59;6.00;86.40
13585;DHT22;6863;48.402;9.994;2023-12-20T14:37:25;6.10;86.90
13585;DHT22;6863;48.402;9.994;2023-12-20T14:39:50;6.40;85.50
13585;DHT22;6863;48.402;9.994;2023-12-20T14:42:16;6.40;85.40
13585;DHT22;6863;48.402;9.994;2023-12-20T14:44:43;6.10;86.10
13585;DHT22;6863;48.402;9.994;2023-12-20T14:47:09;6.00;87.40
13585;DHT22;6863;48.402;9.994;2023-12-20T14:49:35;5.90;87.30
13585;DHT22;6863;48.402;9.994;2023-12-20T14:52:01;5.80;88.40
13585;DHT22;6863;48.402;9.994;2023-12-20T14:54:26;5.70;88.90
13585;DHT22;6863;48.402;9.994;2023-12-20T14:56:52;5.60;88.50
13585;DHT22;6863;48.402;9.994;2023-12-20T14:59:18;5.50;89.00
13585;DHT22;6863;48.402;9.994;2023-12-20T15:01:44;5.40;89.40
13585;DHT22;6863;48.402;9.994;2023-12-20T15:04:10;5.40;90.00
13585;DHT22;6863;48.402;9.994;2023-12-20T15:06:36;5.30;90.10
13585;DHT22;6863;48.402;9.994;2023-12-20T15:09:02;5.30;90.30
13585;DHT22;6863;48.402;9.994;2023-12-20T15:11:30;5.20;91.10
13585;DHT22;6863;48.402;9.994;2023-12-20T15:13:56;5.20;91.50
13585;DHT22;6863;48.402;9.994;2023-12-20T15:16:22;5.20;91.90
13585;DHT22;6863;48.402;9.994;2023-12-20T15:18:49;5.10;92.40
13585;DHT22;6863;48.402;9.994;2023-12-20T15:21:15;5.10;93.20
13585;DHT22;6863;48.402;9.994;2023-12-20T15:23:41;5.00;93.20
13585;DHT22;6863;48.402;9.994;2023-12-20T15:26:20;5.00;93.70
13585;DHT22;6863;48.402;9.994;2023-12-20T15:28:46;5.00;93.90
13585;DHT22;6863;48.402;9.994;2023-12-20T15:31:12;5.00;94.00
13585;DHT22;6863;48.402;9.994;2023-12-20T15:33:38;4.90;94.50
13585;DHT22;6863;48.402;9.994;2023-12-20T15:36:04;4.90;95.20
13585;DHT22;6863;48.402;9.994;2023-12-20T15:38:30;4.80;96.10
13585;DHT22;6863;48.402;9.994;2023-12-20T15:40:56;4.70;96.50
13585;DHT22;6863;48.402;9.994;2023-12-20T15:43:21;4.70;96.90
13585;DHT22;6863;48.402;9.994;2023-12-20T15:45:47;4.70;97.20
13585;DHT22;6863;48.402;9.994;2023-12-20T15:48:12;4.70;97.40
13585;DHT22;6863;48.402;9.994;2023-12-20T15:50:43;4.70;97.40
13585;DHT22;6863;48.402;9.994;2023-12-20T15:53:09;4.60;97.50
13585;DHT22;6863;48.402;9.994;2023-12-20T15:55:34;4.60;97.70
13585;DHT22;6863;48.402;9.994;2023-12-20T15:58:00;4.60;97.80
13585;DHT22;6863;48.402;9.994;2023-12-20T16:00:25;4.60;97.90